Time;durP1;ratioP1;P1;durP2;ratioP2;P2;SDS_P1;SDS_P2;PMS_P1;PMS_P2;Temp;Humidity;BMP_temperature;BMP_pressure;BME280_temperature;BME280_humidity;BME280_pressure;Samples;Min_cycle;Max_cycle;Signal;HPM_P1;HPM_P2
2022/07/08 00:00:41;;;;;;;11.05;2.60;;;16.90;90.60;;;;;;6211018;23;20375;-71
2022/07/08 00:03:07;;;;;;;9.18;2.45;;;17.00;90.60;;;;;;6198985;23;20009;-71
2022/07/08 00:05:33;;;;;;;8.85;2.50;;;17.00;90.70;;;;;;6210982;23;20083;-70
2022/07/08 00:07:59;;;;;;;8.40;2.50;;;17.00;90.70;;;;;;6199774;23;20019;-71
2022/07/08 00:10:25;;;;;;;10.75;2.40;;;17.00;90.80;;;;;;6211156;23;20032;-70
2022/07/08 00:12:51;;;;;;;11.80;2.58;;;17.10;90.90;;;;;;6200734;23;20657;-70
2022/07/08 00:15:16;;;;;;;14.00;2.90;;;17.10;90.90;;;;;;6200862;23;20019;-70
2022/07/08 00:17:42;;;;;;;16.92;2.97;;;17.10;90.80;;;;;;6200683;23;20008;-71
2022/07/08 00:20:09;;;;;;;13.57;3.08;;;17.10;90.40;;;;;;6199866;23;20078;-71
2022/07/08 00:22:36;;;;;;;18.15;3.10;;;17.10;90.00;;;;;;6200641;23;20029;-70
2022/07/08 00:25:03;;;;;;;13.68;3.75;;;17.10;90.00;;;;;;6200468;23;20020;-70
2022/07/08 00:27:29;;;;;;;14.70;2.90;;;17.10;90.00;;;;;;6210715;23;20012;-70
2022/07/08 00:29:55;;;;;;;14.70;2.78;;;17.10;90.00;;;;;;6209600;23;20012;-71
2022/07/08 00:32:21;;;;;;;21.80;3.10;;;17.10;90.10;;;;;;6199050;23;20012;-70
2022/07/08 00:34:47;;;;;;;14.98;3.13;;;17.10;89.80;;;;;;6200615;23;20096;-71
2022/07/08 00:37:12;;;;;;;15.25;2.92;;;17.10;89.90;;;;;;6199955;23;20008;-71
2022/07/08 00:39:38;;;;;;;17.00;2.60;;;17.10;90.00;;;;;;6199878;23;20048;-70
2022/07/08 00:42:05;;;;;;;11.15;2.70;;;17.00;90.00;;;;;;6209888;23;20008;-68
2022/07/08 00:44:31;;;;;;;9.45;2.45;;;16.90;90.20;;;;;;6200112;23;20066;-71
2022/07/08 00:46:57;;;;;;;18.15;3.05;;;16.90;90.30;;;;;;6198574;23;20088;-71
2022/07/08 00:49:23;;;;;;;9.05;2.42;;;16.90;90.40;;;;;;6210098;23;20039;-71
2022/07/08 00:51:49;;;;;;;14.02;2.72;;;16.90;90.40;;;;;;6209025;23;20008;-71
2022/07/08 00:54:19;;;;;;;15.38;3.30;;;16.90;90.70;;;;;;6210909;23;20010;-70
2022/07/08 00:56:45;;;;;;;10.95;2.53;;;16.80;90.30;;;;;;6210723;23;20009;-70
2022/07/08 00:59:11;;;;;;;12.30;3.25;;;16.80;90.60;;;;;;6199576;23;20095;-71
2022/07/08 01:01:38;;;;;;;10.82;2.92;;;16.80;90.60;;;;;;6201571;23;20013;-71
2022/07/08 01:04:04;;;;;;;11.13;2.47;;;16.90;90.60;;;;;;6209443;23;20089;-70
2022/07/08 01:06:30;;;;;;;12.40;2.92;;;16.90;90.80;;;;;;6201429;23;20125;-71
2022/07/08 01:08:56;;;;;;;19.15;3.47;;;16.90;91.00;;;;;;6201272;23;20066;-71
2022/07/08 01:11:22;;;;;;;13.52;2.95;;;17.00;90.90;;;;;;6201969;23;20024;-70
2022/07/08 01:13:48;;;;;;;14.43;2.55;;;17.00;90.80;;;;;;6200943;23;20012;-70
2022/07/08 01:16:14;;;;;;;11.90;3.20;;;17.00;90.70;;;;;;6201409;23;20008;-70
2022/07/08 01:18:41;;;;;;;14.02;2.95;;;17.00;90.90;;;;;;6200658;23;20009;-70
2022/07/08 01:21:07;;;;;;;12.25;2.88;;;17.00;90.70;;;;;;6201167;23;20487;-70
2022/07/08 01:23:34;;;;;;;19.40;3.55;;;17.00;90.70;;;;;;6201752;23;20005;-71
2022/07/08 01:26:02;;;;;;;14.13;3.08;;;17.10;90.70;;;;;;6211472;23;20009;-71
2022/07/08 01:28:28;;;;;;;18.00;3.78;;;17.10;90.70;;;;;;6210772;23;20004;-70
2022/07/08 01:30:53;;;;;;;18.13;3.50;;;17.10;90.70;;;;;;6201111;23;20009;-70
2022/07/08 01:33:19;;;;;;;19.33;3.88;;;17.10;90.90;;;;;;6201643;23;20039;-70
2022/07/08 01:35:45;;;;;;;14.70;3.67;;;17.00;90.70;;;;;;6210433;23;20387;-69
2022/07/08 01:38:11;;;;;;;13.27;2.60;;;17.00;90.80;;;;;;6200411;23;20007;-69
2022/07/08 01:40:36;;;;;;;12.25;2.38;;;17.00;91.00;;;;;;6201565;23;20082;-70
2022/07/08 01:43:02;;;;;;;14.73;3.28;;;17.00;90.90;;;;;;6200211;23;20023;-70
2022/07/08 01:45:28;;;;;;;16.55;3.30;;;17.10;90.80;;;;;;6201229;23;20118;-70
2022/07/08 01:47:54;;;;;;;10.02;2.95;;;17.10;90.90;;;;;;6210922;23;20109;-70
2022/07/08 01:50:20;;;;;;;13.15;2.65;;;17.10;90.90;;;;;;6210552;23;20008;-70
2022/07/08 01:52:46;;;;;;;10.85;3.15;;;17.20;90.90;;;;;;6200451;23;20013;-70
2022/07/08 01:55:11;;;;;;;13.63;3.40;;;17.20;90.70;;;;;;6210704;23;20020;-70
2022/07/08 01:57:37;;;;;;;14.18;2.78;;;17.20;90.60;;;;;;6200631;23;20324;-70
2022/07/08 02:00:05;;;;;;;9.45;2.70;;;17.20;90.50;;;;;;6211006;23;20709;-70
2022/07/08 02:02:36;;;;;;;13.88;3.08;;;17.20;90.40;;;;;;6201454;23;20710;-70
2022/07/08 02:05:02;;;;;;;8.18;2.63;;;17.30;90.50;;;;;;6197441;23;20729;-70
2022/07/08 02:07:28;;;;;;;15.63;3.92;;;17.30;90.60;;;;;;6198333;23;20213;-70
2022/07/08 02:09:54;;;;;;;20.48;3.60;;;17.30;90.80;;;;;;6195464;23;20023;-70
2022/07/08 02:12:20;;;;;;;17.67;3.05;;;17.40;90.80;;;;;;6207825;23;20016;-70
2022/07/08 02:14:54;;;;;;;10.10;3.10;;;17.40;90.80;;;;;;6197912;23;20558;-70
2022/07/08 02:17:22;;;;;;;11.43;2.85;;;17.30;90.70;;;;;;6198420;23;20005;-70
2022/07/08 02:19:49;;;;;;;12.45;2.80;;;17.40;90.70;;;;;;6198043;23;20299;-70
2022/07/08 02:22:15;;;;;;;9.95;2.90;;;17.30;90.70;;;;;;6199076;23;20047;-70
2022/07/08 02:24:41;;;;;;;15.73;2.92;;;17.30;91.00;;;;;;6198148;23;20526;-70
2022/07/08 02:27:07;;;;;;;20.77;3.88;;;17.30;91.00;;;;;;6197884;23;20012;-70
2022/07/08 02:29:33;;;;;;;17.92;3.20;;;17.30;90.80;;;;;;6208604;23;20404;-70
2022/07/08 02:31:59;;;;;;;19.35;3.30;;;17.30;90.80;;;;;;6198742;23;20924;-70
2022/07/08 02:34:26;;;;;;;11.27;2.95;;;17.40;90.90;;;;;;6198061;23;20100;-70
2022/07/08 02:36:52;;;;;;;14.23;2.80;;;17.40;90.90;;;;;;6209244;23;20397;-70
2022/07/08 02:39:19;;;;;;;9.98;2.80;;;17.40;90.90;;;;;;6199212;23;20013;-70
2022/07/08 02:41:44;;;;;;;17.08;2.92;;;17.40;90.90;;;;;;6199187;23;20355;-70
2022/07/08 02:44:11;;;;;;;12.52;3.03;;;17.40;90.90;;;;;;6199211;23;20016;-70
2022/07/08 02:46:37;;;;;;;9.93;2.80;;;17.40;90.80;;;;;;6197846;23;20046;-70
2022/07/08 02:49:03;;;;;;;15.52;3.20;;;17.40;90.90;;;;;;6197854;23;20008;-70
2022/07/08 02:51:29;;;;;;;9.70;2.47;;;17.40;91.00;;;;;;6198925;23;21061;-70
2022/07/08 02:53:55;;;;;;;17.35;3.72;;;17.40;90.90;;;;;;6198835;23;20083;-70
2022/07/08 02:56:21;;;;;;;12.82;3.80;;;17.40;90.80;;;;;;6196443;23;20798;-70
2022/07/08 02:58:47;;;;;;;12.88;2.80;;;17.50;90.70;;;;;;6198058;23;20514;-70
2022/07/08 03:01:12;;;;;;;14.93;2.85;;;17.40;90.70;;;;;;6198930;23;20008;-70
2022/07/08 03:03:38;;;;;;;12.43;3.13;;;17.40;90.70;;;;;;6198731;23;20013;-70
2022/07/08 03:06:04;;;;;;;17.42;3.22;;;17.40;90.70;;;;;;6197570;23;20009;-70
2022/07/08 03:08:30;;;;;;;15.10;3.20;;;17.40;90.60;;;;;;6198830;23;20099;-70
2022/07/08 03:10:56;;;;;;;17.48;3.47;;;17.40;90.60;;;;;;6198777;23;20027;-70
2022/07/08 03:13:21;;;;;;;12.32;3.15;;;17.40;90.40;;;;;;6197991;23;20023;-70
2022/07/08 03:15:48;;;;;;;18.63;3.40;;;17.40;90.50;;;;;;6196387;23;20016;-70
2022/07/08 03:18:13;;;;;;;17.05;2.70;;;17.40;90.60;;;;;;6197603;23;20009;-70
2022/07/08 03:20:39;;;;;;;12.82;2.65;;;17.40;90.40;;;;;;6198240;23;20577;-71
2022/07/08 03:23:05;;;;;;;15.75;2.90;;;17.40;90.50;;;;;;6196599;23;20008;-70
2022/07/08 03:25:33;;;;;;;11.10;3.25;;;17.30;90.40;;;;;;6199919;23;20017;-71
2022/07/08 03:27:59;;;;;;;10.35;3.13;;;17.30;90.30;;;;;;6199451;23;20047;-70
2022/07/08 03:30:25;;;;;;;11.43;3.10;;;17.30;90.50;;;;;;6198652;23;20016;-71
2022/07/08 03:32:50;;;;;;;16.15;3.13;;;17.30;90.40;;;;;;6200927;23;20019;-70
2022/07/08 03:35:16;;;;;;;13.82;2.92;;;17.30;90.40;;;;;;6200397;23;20016;-70
2022/07/08 03:37:43;;;;;;;12.88;2.60;;;17.30;90.30;;;;;;6211322;23;20084;-71
2022/07/08 03:42:57;;;;;;;13.43;3.10;;;17.20;90.40;;;;;;6200555;23;20008;-70
2022/07/08 03:45:23;;;;;;;14.75;3.42;;;17.30;90.50;;;;;;6201102;23;20008;-70
2022/07/08 03:47:49;;;;;;;17.30;2.85;;;17.30;90.50;;;;;;6201296;23;20459;-70
2022/07/08 03:50:15;;;;;;;10.95;2.30;;;17.30;90.50;;;;;;6197936;23;20044;-71
2022/07/08 03:52:41;;;;;;;13.90;2.35;;;17.30;90.40;;;;;;6201811;23;20023;-70
2022/07/08 03:55:07;;;;;;;12.93;2.40;;;17.20;90.20;;;;;;6200580;23;20091;-70
2022/07/08 03:57:33;;;;;;;11.57;2.30;;;17.30;90.20;;;;;;6201210;23;20015;-70
2022/07/08 03:59:59;;;;;;;13.00;2.75;;;17.20;90.10;;;;;;6200918;23;20447;-70
2022/07/08 04:02:25;;;;;;;15.77;3.58;;;17.30;90.10;;;;;;6201442;23;20015;-71
2022/07/08 04:04:51;;;;;;;12.68;3.15;;;17.30;90.00;;;;;;6200290;23;20642;-70
2022/07/08 04:07:17;;;;;;;15.43;2.70;;;17.30;90.10;;;;;;6210802;23;20012;-71
2022/07/08 04:09:43;;;;;;;10.65;2.50;;;17.20;90.20;;;;;;6200588;23;20047;-70
2022/07/08 04:12:09;;;;;;;9.07;2.00;;;17.20;90.10;;;;;;6200535;23;20019;-70
2022/07/08 04:14:36;;;;;;;10.70;2.47;;;17.20;90.00;;;;;;6201158;23;20347;-70
2022/07/08 04:17:02;;;;;;;10.77;2.42;;;17.20;90.10;;;;;;6200846;23;20012;-70
2022/07/08 04:19:28;;;;;;;9.57;2.47;;;17.20;90.20;;;;;;6199839;23;20019;-70
2022/07/08 04:21:54;;;;;;;19.90;2.47;;;17.20;90.10;;;;;;6200639;23;20013;-70
2022/07/08 04:24:19;;;;;;;15.63;2.72;;;17.20;90.10;;;;;;6200517;23;20008;-70
2022/07/08 04:26:45;;;;;;;12.27;3.08;;;17.20;90.00;;;;;;6208910;23;20066;-70
2022/07/08 04:29:11;;;;;;;16.17;3.28;;;17.30;90.00;;;;;;6210178;23;20036;-69
2022/07/08 04:31:37;;;;;;;8.88;2.65;;;17.30;90.00;;;;;;6200731;23;20099;-70
2022/07/08 04:34:02;;;;;;;10.13;2.88;;;17.30;89.30;;;;;;6209231;23;20103;-70
2022/07/08 04:36:28;;;;;;;9.82;2.25;;;17.30;89.50;;;;;;6200143;23;20548;-70
2022/07/08 04:38:54;;;;;;;12.85;2.67;;;17.20;89.40;;;;;;6199964;23;20012;-70
2022/07/08 04:41:20;;;;;;;8.48;1.95;;;17.20;89.80;;;;;;6200043;23;20015;-70
2022/07/08 04:43:46;;;;;;;7.15;1.98;;;17.20;90.00;;;;;;6209988;23;20752;-69
2022/07/08 04:46:12;;;;;;;10.40;2.50;;;17.20;90.00;;;;;;6200103;23;20800;-70
2022/07/08 04:48:38;;;;;;;16.80;2.58;;;17.20;90.00;;;;;;6209592;23;20083;-70
2022/07/08 04:51:04;;;;;;;9.63;2.38;;;17.20;89.80;;;;;;6200727;23;20590;-70
2022/07/08 04:53:30;;;;;;;14.98;3.15;;;17.20;89.80;;;;;;6211075;23;20019;-70
2022/07/08 04:55:56;;;;;;;9.30;2.75;;;17.30;89.80;;;;;;6199269;23;20040;-69
2022/07/08 04:58:21;;;;;;;14.70;3.05;;;17.30;89.70;;;;;;6199975;23;20009;-70
2022/07/08 05:00:47;;;;;;;12.07;2.38;;;17.30;89.60;;;;;;6197602;23;20099;-70
2022/07/08 05:03:13;;;;;;;9.50;2.28;;;17.30;89.20;;;;;;6199131;23;20836;-70
2022/07/08 05:05:39;;;;;;;10.85;2.05;;;17.20;88.70;;;;;;6200430;23;20016;-70
2022/07/08 05:08:05;;;;;;;12.88;2.58;;;17.20;89.00;;;;;;6209805;23;20438;-70
2022/07/08 05:10:31;;;;;;;8.38;2.53;;;17.20;89.10;;;;;;6199622;23;20020;-70
2022/07/08 05:12:57;;;;;;;11.70;2.08;;;17.20;89.00;;;;;;6209785;23;20009;-70
2022/07/08 05:15:24;;;;;;;13.65;2.03;;;17.30;89.20;;;;;;6199532;23;20107;-70
2022/07/08 05:17:52;;;;;;;17.17;2.97;;;17.30;89.20;;;;;;6208896;23;20008;-70
2022/07/08 05:20:18;;;;;;;14.10;2.47;;;17.30;89.20;;;;;;6199975;23;20015;-70
2022/07/08 05:22:44;;;;;;;14.10;2.85;;;17.40;89.00;;;;;;6199148;23;20001;-70
2022/07/08 05:25:11;;;;;;;14.02;2.55;;;17.30;88.80;;;;;;6198968;23;20092;-69
2022/07/08 05:27:37;;;;;;;11.20;2.65;;;17.30;89.00;;;;;;6199823;23;20386;-70
2022/07/08 05:30:05;;;;;;;7.93;2.05;;;17.30;88.30;;;;;;6199419;23;20016;-70
2022/07/08 05:32:31;;;;;;;10.38;2.25;;;17.20;87.90;;;;;;6198817;23;20012;-70
2022/07/08 05:34:58;;;;;;;11.50;2.50;;;17.20;86.70;;;;;;6200144;23;20016;-70
2022/07/08 05:37:24;;;;;;;8.88;2.00;;;17.20;87.50;;;;;;6200151;23;20696;-70
2022/07/08 05:39:49;;;;;;;9.40;2.58;;;17.10;86.60;;;;;;6199275;23;20004;-70
2022/07/08 05:42:15;;;;;;;12.18;2.53;;;17.10;86.60;;;;;;6199556;23;20335;-70
2022/07/08 05:44:41;;;;;;;11.10;2.30;;;17.20;86.80;;;;;;6198094;23;20022;-70
2022/07/08 05:47:07;;;;;;;19.50;2.55;;;17.20;86.90;;;;;;6208975;23;20086;-69
2022/07/08 05:49:34;;;;;;;16.02;2.47;;;17.30;86.40;;;;;;6199475;23;20011;-69
2022/07/08 05:52:01;;;;;;;14.38;2.33;;;17.30;85.70;;;;;;6197307;23;20075;-69
2022/07/08 05:54:27;;;;;;;12.63;2.20;;;17.30;85.60;;;;;;6208937;23;20018;-70
2022/07/08 05:56:53;;;;;;;15.90;2.03;;;17.20;85.30;;;;;;6199272;23;20020;-70
2022/07/08 05:59:19;;;;;;;14.15;3.30;;;17.20;84.80;;;;;;6196985;23;20751;-70
2022/07/08 06:01:45;;;;;;;11.88;2.42;;;17.20;85.20;;;;;;6199417;23;20084;-69
2022/07/08 06:04:10;;;;;;;16.45;2.53;;;17.30;84.30;;;;;;6198696;23;20334;-69
2022/07/08 06:06:36;;;;;;;9.75;2.42;;;17.30;85.00;;;;;;6209147;23;20877;-70
2022/07/08 06:09:02;;;;;;;11.98;3.03;;;17.30;85.70;;;;;;6198462;23;20071;-70
2022/07/08 06:11:28;;;;;;;9.90;2.38;;;17.30;85.10;;;;;;6199879;23;20023;-70
2022/07/08 06:13:54;;;;;;;10.15;2.15;;;17.30;84.20;;;;;;6199313;23;20008;-70
2022/07/08 06:16:20;;;;;;;10.27;2.50;;;17.40;84.10;;;;;;6199318;23;20257;-70
2022/07/08 06:18:46;;;;;;;14.35;2.80;;;17.40;83.70;;;;;;6199315;23;20730;-70
2022/07/08 06:21:12;;;;;;;14.20;2.15;;;17.50;84.40;;;;;;6209705;23;20012;-70
2022/07/08 06:23:38;;;;;;;8.43;2.00;;;17.50;84.00;;;;;;6198140;23;20009;-70
2022/07/08 06:26:04;;;;;;;9.70;1.85;;;17.50;82.90;;;;;;6199635;23;20425;-69
2022/07/08 06:28:30;;;;;;;13.38;1.80;;;17.50;82.60;;;;;;6198744;23;20009;-70
2022/07/08 06:30:56;;;;;;;10.13;1.98;;;17.50;81.70;;;;;;6208328;23;20008;-69
2022/07/08 06:33:22;;;;;;;9.45;1.90;;;17.50;81.70;;;;;;6198825;23;20017;-70
2022/07/08 06:35:48;;;;;;;11.98;2.22;;;17.60;82.40;;;;;;6208625;23;20059;-70
2022/07/08 06:38:13;;;;;;;10.82;2.30;;;17.60;81.90;;;;;;6208646;23;20012;-70
2022/07/08 06:40:39;;;;;;;11.45;1.63;;;17.70;81.70;;;;;;6207216;23;20000;-69
2022/07/08 06:43:05;;;;;;;9.35;2.00;;;17.70;80.50;;;;;;6207891;23;20058;-70
2022/07/08 06:45:32;;;;;;;16.02;3.50;;;17.70;80.60;;;;;;6197583;23;20009;-70
2022/07/08 06:48:01;;;;;;;12.98;2.10;;;17.80;80.40;;;;;;6198307;23;20047;-70
2022/07/08 06:50:27;;;;;;;9.10;2.30;;;17.80;80.30;;;;;;6208134;23;20004;-69
2022/07/08 06:52:53;;;;;;;20.48;2.67;;;17.90;79.60;;;;;;6208065;23;20313;-70
2022/07/08 06:55:19;;;;;;;14.43;2.72;;;18.10;79.90;;;;;;6198641;23;20013;-69
2022/07/08 06:57:45;;;;;;;10.90;2.17;;;18.10;79.10;;;;;;6207678;23;19997;-70
2022/07/08 07:00:12;;;;;;;8.85;1.67;;;18.10;79.50;;;;;;6209542;23;20278;-69
2022/07/08 07:02:38;;;;;;;10.75;1.92;;;18.20;79.60;;;;;;6208595;23;20088;-69
2022/07/08 07:05:04;;;;;;;8.52;1.92;;;18.10;79.90;;;;;;6199722;23;20100;-70
2022/07/08 07:07:30;;;;;;;9.27;1.92;;;18.10;79.80;;;;;;6210005;23;20019;-70
2022/07/08 07:09:56;;;;;;;5.85;1.27;;;18.10;78.70;;;;;;6198568;23;20013;-70
2022/07/08 07:12:22;;;;;;;7.90;1.58;;;18.10;79.30;;;;;;6210400;23;20023;-70
2022/07/08 07:14:47;;;;;;;8.30;1.92;;;18.20;79.00;;;;;;6199519;23;20335;-70
2022/07/08 07:17:17;;;;;;;11.73;2.88;;;18.20;79.10;;;;;;6197763;23;20005;-70
2022/07/08 07:19:44;;;;;;;11.27;2.00;;;18.30;78.60;;;;;;6197264;23;20028;-70
2022/07/08 07:22:10;;;;;;;7.45;1.83;;;18.30;78.00;;;;;;6209903;23;20083;-69
2022/07/08 07:24:36;;;;;;;9.27;1.65;;;18.40;78.60;;;;;;6198812;23;20477;-71
2022/07/08 07:27:02;;;;;;;8.07;2.00;;;18.40;77.30;;;;;;6200663;23;20054;-70
2022/07/08 07:29:28;;;;;;;9.60;1.98;;;18.50;77.20;;;;;;6200928;23;20015;-70
2022/07/08 07:31:54;;;;;;;9.93;2.00;;;18.50;77.20;;;;;;6199080;23;20009;-70
2022/07/08 07:34:20;;;;;;;10.18;1.70;;;18.60;77.70;;;;;;6199345;23;20012;-67
2022/07/08 07:36:46;;;;;;;10.18;2.25;;;18.60;77.10;;;;;;6209333;23;20004;-70
2022/07/08 07:39:11;;;;;;;8.48;2.47;;;18.60;77.40;;;;;;6198429;23;20015;-68
2022/07/08 07:41:38;;;;;;;9.35;2.30;;;18.80;75.80;;;;;;6196918;23;20005;-70
2022/07/08 07:44:04;;;;;;;12.55;2.17;;;19.00;77.00;;;;;;6198452;23;20035;-69
2022/07/08 07:46:30;;;;;;;6.50;2.10;;;19.10;73.00;;;;;;6198893;23;20088;-70
2022/07/08 07:48:56;;;;;;;6.10;1.50;;;19.30;75.10;;;;;;6208790;23;20116;-70
2022/07/08 07:51:23;;;;;;;7.82;2.20;;;19.50;74.60;;;;;;6209395;23;20541;-69
2022/07/08 07:53:48;;;;;;;9.00;2.28;;;19.60;75.20;;;;;;6207747;23;20067;-69
2022/07/08 07:56:14;;;;;;;5.70;1.60;;;19.80;74.60;;;;;;6199518;23;20481;-69
2022/07/08 07:58:40;;;;;;;6.28;2.40;;;19.90;72.00;;;;;;6199968;23;20016;-69
2022/07/08 08:01:07;;;;;;;9.35;3.15;;;20.00;71.40;;;;;;6198778;23;20008;-71
2022/07/08 08:03:33;;;;;;;8.85;3.08;;;19.90;71.40;;;;;;6199918;23;20071;-70
2022/07/08 08:06:00;;;;;;;5.97;2.03;;;19.80;72.10;;;;;;6200831;23;20106;-70
2022/07/08 08:08:26;;;;;;;9.48;2.75;;;19.90;72.10;;;;;;6210008;23;20430;-70
2022/07/08 08:10:52;;;;;;;4.28;1.83;;;19.90;72.60;;;;;;6200569;23;20492;-69
2022/07/08 08:13:18;;;;;;;8.25;1.83;;;20.00;71.60;;;;;;6210570;23;20091;-69
2022/07/08 08:15:45;;;;;;;7.25;1.65;;;20.10;70.50;;;;;;6199651;23;20043;-69
2022/07/08 08:18:11;;;;;;;9.95;1.63;;;20.00;71.80;;;;;;6200223;23;20008;-69
2022/07/08 08:20:37;;;;;;;9.65;1.95;;;19.90;71.50;;;;;;6198023;23;20008;-69
2022/07/08 08:23:03;;;;;;;10.07;3.65;;;19.80;72.50;;;;;;6210192;23;20040;-69
2022/07/08 08:25:29;;;;;;;9.25;3.03;;;19.80;72.70;;;;;;6209790;23;20008;-70
2022/07/08 08:27:56;;;;;;;8.90;2.00;;;19.70;72.30;;;;;;6199640;23;20016;-67
2022/07/08 08:30:22;;;;;;;7.28;1.90;;;19.80;72.90;;;;;;6199274;23;20024;-69
2022/07/08 08:32:48;;;;;;;11.77;4.03;;;19.70;73.30;;;;;;6199721;23;20019;-69
2022/07/08 08:35:14;;;;;;;11.90;4.22;;;19.70;74.00;;;;;;6210034;23;20009;-69
2022/07/08 08:37:40;;;;;;;9.90;3.50;;;19.60;73.20;;;;;;6208995;23;20008;-69
2022/07/08 08:40:09;;;;;;;11.68;3.80;;;19.60;74.30;;;;;;6209835;23;20008;-69
2022/07/08 08:42:36;;;;;;;8.30;2.03;;;19.50;73.20;;;;;;6200145;23;20028;-70
2022/07/08 08:45:03;;;;;;;12.23;2.17;;;19.50;73.80;;;;;;6199041;23;20017;-70
2022/07/08 08:47:31;;;;;;;6.90;1.83;;;19.50;74.00;;;;;;6209434;23;20095;-68
2022/07/08 08:50:53;;;;;;;6.60;1.58;;;19.40;74.10;;;;;;6198788;23;20675;-69
2022/07/08 08:52:49;;;;;;;8.85;2.08;;;19.30;75.20;;;;;;6197264;23;20024;-69
2022/07/08 08:55:27;;;;;;;5.85;1.90;;;19.30;75.10;;;;;;6198455;23;20023;-69
2022/07/08 08:58:11;;;;;;;9.02;1.77;;;19.30;74.40;;;;;;6209292;23;20019;-69
2022/07/08 09:00:37;;;;;;;8.00;1.58;;;19.50;73.60;;;;;;6198088;23;20499;-69
2022/07/08 09:03:03;;;;;;;11.63;2.22;;;19.60;73.20;;;;;;6199905;23;20008;-69
2022/07/08 09:05:30;;;;;;;8.50;2.33;;;19.50;73.10;;;;;;6199245;23;20008;-69
2022/07/08 09:07:56;;;;;;;8.70;3.80;;;19.50;73.20;;;;;;6198824;23;20082;-68
2022/07/08 09:10:23;;;;;;;9.10;3.00;;;19.40;71.90;;;;;;6195461;23;20021;-68
2022/07/08 09:13:10;;;;;;;12.93;3.50;;;19.40;72.00;;;;;;6198624;23;20036;-68
2022/07/08 09:15:37;;;;;;;9.10;2.40;;;19.30;73.30;;;;;;6198337;23;20019;-68
2022/07/08 09:18:09;;;;;;;8.82;2.65;;;19.40;73.10;;;;;;6198045;23;20008;-67
2022/07/08 09:20:42;;;;;;;9.07;1.80;;;19.40;72.80;;;;;;6208219;23;20050;-68
2022/07/08 09:23:22;;;;;;;7.07;2.08;;;19.40;73.30;;;;;;6207706;23;20557;-68
2022/07/08 09:25:50;;;;;;;8.65;1.90;;;19.40;72.80;;;;;;6198543;23;20012;-68
2022/07/08 09:28:27;;;;;;;7.18;1.80;;;19.60;72.70;;;;;;6197632;23;20079;-67
2022/07/08 09:34:25;;;;;;;8.88;1.65;;;19.80;72.40;;;;;;6050422;23;20068;-69
2022/07/08 09:36:52;;;;;;;7.97;1.70;;;19.90;69.90;;;;;;6198237;23;20040;-68
2022/07/08 09:39:25;;;;;;;6.47;1.85;;;19.80;71.10;;;;;;6201410;23;20390;-68
2022/07/08 09:41:52;;;;;;;6.60;1.27;;;19.80;71.60;;;;;;6201267;23;20023;-68
2022/07/08 09:44:22;;;;;;;9.02;2.28;;;19.70;70.20;;;;;;6200812;23;20009;-69
2022/07/08 09:46:49;;;;;;;11.57;5.40;;;19.90;70.60;;;;;;6201198;23;20036;-73
2022/07/08 09:49:27;;;;;;;9.05;3.28;;;20.00;68.40;;;;;;6162546;23;20151;-69
2022/07/08 09:51:53;;;;;;;11.10;3.20;;;20.20;68.10;;;;;;6200393;23;20009;-70
2022/07/08 09:54:21;;;;;;;8.45;2.60;;;20.40;68.10;;;;;;6200187;23;20012;-69
2022/07/08 09:57:00;;;;;;;10.15;2.55;;;20.60;67.30;;;;;;6209436;23;20406;-68
2022/07/08 09:59:25;;;;;;;7.95;2.28;;;20.80;66.80;;;;;;6201269;23;20000;-69
2022/07/08 10:01:52;;;;;;;10.95;3.00;;;20.90;65.60;;;;;;6202874;23;20091;-76
2022/07/08 10:04:19;;;;;;;9.82;1.75;;;20.90;65.90;;;;;;6212576;23;20005;-76
2022/07/08 10:06:45;;;;;;;6.50;3.25;;;21.00;64.80;;;;;;6199740;23;20035;-76
2022/07/08 10:09:11;;;;;;;7.75;2.10;;;21.10;64.80;;;;;;6201819;23;20779;-76
2022/07/08 10:11:38;;;;;;;7.45;1.90;;;21.20;64.50;;;;;;6202546;23;20386;-76
2022/07/08 10:14:05;;;;;;;6.65;2.13;;;21.30;63.60;;;;;;6211770;23;20039;-75
2022/07/08 10:16:34;;;;;;;6.22;1.58;;;21.40;63.90;;;;;;6201996;23;20019;-79
2022/07/08 10:19:02;;;;;;;6.38;1.52;;;21.50;62.70;;;;;;6201346;23;20011;-75
2022/07/08 10:21:29;;;;;;;5.43;1.35;;;21.60;63.80;;;;;;6210998;23;20087;-76
2022/07/08 10:23:55;;;;;;;5.80;1.48;;;21.70;64.80;;;;;;6211197;23;20465;-75
2022/07/08 10:26:35;;;;;;;7.30;1.65;;;21.70;63.50;;;;;;6199670;23;20019;-78
2022/07/08 10:29:09;;;;;;;7.60;4.13;;;21.60;62.70;;;;;;6211351;23;20032;-75
2022/07/08 10:31:41;;;;;;;9.73;4.22;;;21.50;63.90;;;;;;6201802;23;20021;-74
2022/07/08 10:34:08;;;;;;;8.65;2.00;;;21.60;63.80;;;;;;6200888;23;20494;-76
2022/07/08 10:36:51;;;;;;;12.32;2.80;;;21.60;62.90;;;;;;6211245;23;20663;-76
2022/07/08 10:39:30;;;;;;;5.03;1.73;;;21.50;62.80;;;;;;6201313;23;20039;-74
2022/07/08 10:42:00;;;;;;;7.70;1.60;;;21.70;64.00;;;;;;6201272;23;20099;-78
2022/07/08 10:44:44;;;;;;;4.60;1.30;;;22.00;62.50;;;;;;6200931;23;20008;-76
2022/07/08 10:47:22;;;;;;;6.85;1.08;;;22.10;59.00;;;;;;6210868;23;20012;-79
2022/07/08 10:49:49;;;;;;;4.22;1.17;;;22.10;58.10;;;;;;6201031;23;20017;-75
2022/07/08 10:52:17;;;;;;;4.22;1.10;;;22.10;60.30;;;;;;6201314;23;20016;-76
2022/07/08 10:54:43;;;;;;;4.88;1.13;;;22.10;60.50;;;;;;6200470;23;20327;-76
2022/07/08 10:57:24;;;;;;;7.65;1.17;;;22.20;59.80;;;;;;6200737;23;20016;-76
2022/07/08 11:00:13;;;;;;;5.32;1.05;;;22.30;59.60;;;;;;6198632;23;20012;-76
2022/07/08 11:02:45;;;;;;;7.93;1.83;;;22.30;59.80;;;;;;6200502;23;20863;-76
2022/07/08 11:05:34;;;;;;;3.53;0.95;;;22.30;59.10;;;;;;6201255;23;20008;-76
2022/07/08 11:08:18;;;;;;;4.68;1.30;;;22.20;59.90;;;;;;6210403;23;20009;-76
2022/07/08 11:10:45;;;;;;;5.53;1.25;;;22.10;58.60;;;;;;6200160;23;20019;-76
2022/07/08 11:13:10;;;;;;;7.32;1.40;;;22.10;60.00;;;;;;6210551;23;20055;-76
2022/07/08 11:15:36;;;;;;;6.55;1.50;;;22.20;61.30;;;;;;6210490;23;20764;-76
2022/07/08 11:18:03;;;;;;;4.70;1.05;;;22.30;60.60;;;;;;6210103;23;20079;-76
2022/07/08 11:20:33;;;;;;;4.25;1.40;;;22.30;60.00;;;;;;6208769;23;20036;-76
2022/07/08 11:25:31;;;;;;;5.07;1.35;;;22.50;60.40;;;;;;6157604;23;20020;-76
2022/07/08 11:27:57;;;;;;;10.07;1.23;;;22.60;59.30;;;;;;6200300;23;20016;-75
2022/07/08 11:30:27;;;;;;;6.80;1.27;;;22.60;56.60;;;;;;6201282;23;20143;-75
2022/07/08 11:32:53;;;;;;;9.43;1.35;;;22.70;56.60;;;;;;6200225;23;20008;-76
2022/07/08 11:35:22;;;;;;;6.20;1.30;;;22.70;57.70;;;;;;6201609;23;20118;-74
2022/07/08 11:37:48;;;;;;;3.63;1.17;;;22.70;57.60;;;;;;6201488;23;20020;-75
2022/07/08 11:40:18;;;;;;;5.10;1.38;;;22.80;57.70;;;;;;6211150;23;20008;-76
2022/07/08 11:42:44;;;;;;;6.32;1.40;;;22.80;57.70;;;;;;6202059;23;20008;-75
2022/07/08 11:45:11;;;;;;;5.30;1.65;;;22.80;57.20;;;;;;6203078;23;20744;-75
2022/07/08 11:47:37;;;;;;;6.72;1.30;;;22.70;57.00;;;;;;6203239;23;20746;-76
2022/07/08 11:50:07;;;;;;;4.93;1.13;;;22.70;57.40;;;;;;6204001;23;20343;-75
2022/07/08 11:52:32;;;;;;;9.57;1.48;;;22.70;57.00;;;;;;6212862;23;20008;-75
2022/07/08 11:54:58;;;;;;;7.90;1.30;;;22.70;57.30;;;;;;6202695;23;20035;-76
2022/07/08 11:57:24;;;;;;;3.42;0.93;;;22.60;58.00;;;;;;6202227;23;20342;-75
2022/07/08 11:59:50;;;;;;;4.38;0.90;;;22.50;58.70;;;;;;6202572;23;20001;-73
2022/07/08 12:02:21;;;;;;;4.53;1.17;;;22.40;59.30;;;;;;6212655;23;20431;-74
2022/07/08 12:04:48;;;;;;;5.43;1.08;;;22.30;59.60;;;;;;6201566;23;20060;-77
2022/07/08 12:07:27;;;;;;;3.60;1.13;;;22.40;58.80;;;;;;6210758;23;20059;-77
2022/07/08 12:09:54;;;;;;;4.57;1.20;;;22.30;59.70;;;;;;6200431;23;20406;-77
2022/07/08 12:12:22;;;;;;;6.63;1.48;;;22.40;59.30;;;;;;6203113;23;20028;-77
2022/07/08 12:28:46;;;;;;;3.97;1.27;;;22.30;60.70;;;;;;6202429;23;20370;-77
2022/07/08 12:31:11;;;;;;;5.15;1.48;;;22.20;60.10;;;;;;6203387;23;20004;-77
2022/07/08 12:33:38;;;;;;;5.13;1.25;;;22.10;59.10;;;;;;6213904;23;20389;-78
2022/07/08 12:36:24;;;;;;;6.22;1.58;;;21.90;61.30;;;;;;6203333;23;20099;-78
2022/07/08 12:38:50;;;;;;;5.78;1.50;;;21.90;61.10;;;;;;6203017;23;20437;-77
2022/07/08 12:41:20;;;;;;;6.63;1.40;;;22.00;61.40;;;;;;6201941;23;20015;-76
2022/07/08 12:43:46;;;;;;;5.00;1.40;;;22.00;60.00;;;;;;6203259;23;20012;-77
2022/07/08 12:46:12;;;;;;;3.28;1.40;;;21.90;60.60;;;;;;6202673;23;20845;-76
2022/07/08 12:48:38;;;;;;;4.50;1.40;;;21.90;62.10;;;;;;6203045;23;20008;-76
2022/07/08 12:51:04;;;;;;;4.75;1.20;;;21.80;62.70;;;;;;6202944;23;20510;-75
2022/07/08 12:53:30;;;;;;;7.68;1.30;;;21.80;63.60;;;;;;6202938;23;20586;-71
2022/07/08 12:55:55;;;;;;;6.80;1.80;;;21.80;61.10;;;;;;6212107;23;20508;-77
2022/07/08 12:58:24;;;;;;;4.30;1.27;;;21.70;62.80;;;;;;6201594;23;20020;-69
2022/07/08 13:00:53;;;;;;;2.55;0.90;;;21.70;61.50;;;;;;6202521;23;20084;-76
2022/07/08 13:03:19;;;;;;;6.53;1.38;;;21.80;61.90;;;;;;6212285;23;20015;-75